sensor_id;sensor_type;location;lat;lon;timestamp;pressure;altitude;pressure_sealevel;temperature;humidity
7662;BME280;30314;48.184;11.510;2023-02-19T00:01:45;96376.00;;;10.21;84.07
7662;BME280;30314;48.184;11.510;2023-02-19T00:04:13;96385.50;;;10.27;84.72
7662;BME280;30314;48.184;11.510;2023-02-19T00:06:40;96368.91;;;10.21;83.89
7662;BME280;30314;48.184;11.510;2023-02-19T00:09:09;96386.84;;;10.19;85.74
7662;BME280;30314;48.184;11.510;2023-02-19T00:11:36;96377.03;;;10.25;85.55
7662;BME280;30314;48.184;11.510;2023-02-19T00:14:04;96369.69;;;10.17;85.58
7662;BME280;30314;48.184;11.510;2023-02-19T00:16:31;96376.56;;;10.18;86.50
7662;BME280;30314;48.184;11.510;2023-02-19T00:18:59;96348.63;;;10.06;86.05
7662;BME280;30314;48.184;11.510;2023-02-19T00:21:26;96372.59;;;10.20;86.88
7662;BME280;30314;48.184;11.510;2023-02-19T00:23:55;96371.75;;;10.25;86.28
7662;BME280;30314;48.184;11.510;2023-02-19T00:26:22;96339.97;;;9.95;87.35
7662;BME280;30314;48.184;11.510;2023-02-19T00:28:50;96374.69;;;10.18;87.07
7662;BME280;30314;48.184;11.510;2023-02-19T00:33:46;96360.50;;;10.04;86.86
7662;BME280;30314;48.184;11.510;2023-02-19T00:36:13;96364.16;;;10.13;87.02
7662;BME280;30314;48.184;11.510;2023-02-19T00:38:41;96368.91;;;10.21;86.70
7662;BME280;30314;48.184;11.510;2023-02-19T00:41:09;96360.19;;;10.10;87.70
7662;BME280;30314;48.184;11.510;2023-02-19T00:43:46;96357.56;;;10.10;87.81
7662;BME280;30314;48.184;11.510;2023-02-19T00:46:16;96366.03;;;10.07;88.47
7662;BME280;30314;48.184;11.510;2023-02-19T00:48:44;96359.69;;;10.13;86.93
7662;BME280;30314;48.184;11.510;2023-02-19T00:51:11;96348.56;;;10.22;86.08
7662;BME280;30314;48.184;11.510;2023-02-19T00:53:38;96340.13;;;10.20;86.61
7662;BME280;30314;48.184;11.510;2023-02-19T00:56:05;96330.13;;;10.11;86.18
7662;BME280;30314;48.184;11.510;2023-02-19T00:58:32;96326.66;;;10.16;86.26
7662;BME280;30314;48.184;11.510;2023-02-19T01:00:59;96320.09;;;10.13;85.20
7662;BME280;30314;48.184;11.510;2023-02-19T01:03:26;96309.53;;;10.13;85.89
7662;BME280;30314;48.184;11.510;2023-02-19T01:05:52;96310.91;;;10.06;85.48
7662;BME280;30314;48.184;11.510;2023-02-19T01:08:20;96330.91;;;10.12;86.87
7662;BME280;30314;48.184;11.510;2023-02-19T01:10:47;96342.25;;;10.18;86.80
7662;BME280;30314;48.184;11.510;2023-02-19T01:13:14;96338.56;;;10.13;87.27
7662;BME280;30314;48.184;11.510;2023-02-19T01:15:40;96312.97;;;10.14;86.38
7662;BME280;30314;48.184;11.510;2023-02-19T01:18:07;96304.56;;;10.07;85.77
7662;BME280;30314;48.184;11.510;2023-02-19T01:20:37;96301.38;;;10.10;86.41
7662;BME280;30314;48.184;11.510;2023-02-19T01:23:04;96317.38;;;10.24;86.17
7662;BME280;30314;48.184;11.510;2023-02-19T01:25:30;96296.34;;;10.08;87.54
7662;BME280;30314;48.184;11.510;2023-02-19T01:27:57;96316.94;;;10.06;88.87
7662;BME280;30314;48.184;11.510;2023-02-19T01:30:23;96314.88;;;9.98;90.01
7662;BME280;30314;48.184;11.510;2023-02-19T01:32:50;96315.34;;;10.10;89.98
7662;BME280;30314;48.184;11.510;2023-02-19T01:35:17;96291.69;;;9.90;88.92
7662;BME280;30314;48.184;11.510;2023-02-19T01:37:43;96323.03;;;10.07;89.42
7662;BME280;30314;48.184;11.510;2023-02-19T01:40:10;96296.94;;;10.00;90.00
7662;BME280;30314;48.184;11.510;2023-02-19T01:42:41;96296.41;;;9.98;89.14
7662;BME280;30314;48.184;11.510;2023-02-19T01:45:18;96300.31;;;10.11;88.63
7662;BME280;30314;48.184;11.510;2023-02-19T01:47:50;96280.03;;;9.96;89.13
7662;BME280;30314;48.184;11.510;2023-02-19T01:50:19;96278.50;;;9.90;89.56
7662;BME280;30314;48.184;11.510;2023-02-19T01:52:46;96258.72;;;9.87;89.00
7662;BME280;30314;48.184;11.510;2023-02-19T01:55:13;96288.47;;;10.03;89.07
7662;BME280;30314;48.184;11.510;2023-02-19T01:57:43;96294.78;;;10.12;92.11
7662;BME280;30314;48.184;11.510;2023-02-19T02:00:13;96294.78;;;10.07;94.33
7662;BME280;30314;48.184;11.510;2023-02-19T02:02:43;96286.72;;;9.83;98.05
7662;BME280;30314;48.184;11.510;2023-02-19T02:05:18;96288.25;;;9.94;98.01
7662;BME280;30314;48.184;11.510;2023-02-19T02:07:48;96296.47;;;9.88;99.61
7662;BME280;30314;48.184;11.510;2023-02-19T02:10:34;96290.44;;;9.71;100.00
7662;BME280;30314;48.184;11.510;2023-02-19T02:13:01;96259.06;;;9.65;99.49
7662;BME280;30314;48.184;11.510;2023-02-19T02:15:34;96280.91;;;9.76;100.00
7662;BME280;30314;48.184;11.510;2023-02-19T02:18:28;96290.63;;;9.85;100.00
7662;BME280;30314;48.184;11.510;2023-02-19T02:21:35;96267.00;;;9.65;100.00
7662;BME280;30314;48.184;11.510;2023-02-19T02:24:11;96279.13;;;9.55;100.00
7662;BME280;30314;48.184;11.510;2023-02-19T02:27:05;96267.84;;;9.44;100.00
7662;BME280;30314;48.184;11.510;2023-02-19T02:33:03;96273.88;;;9.55;100.00
7662;BME280;30314;48.184;11.510;2023-02-19T02:35:40;96256.75;;;9.48;100.00
7662;BME280;30314;48.184;11.510;2023-02-19T02:38:10;96265.47;;;9.48;100.00
7662;BME280;30314;48.184;11.510;2023-02-19T02:40:41;96248.59;;;9.39;100.00
7662;BME280;30314;48.184;11.510;2023-02-19T02:43:08;96268.34;;;9.57;100.00
7662;BME280;30314;48.184;11.510;2023-02-19T02:45:35;96272.84;;;9.51;100.00
7662;BME280;30314;48.184;11.510;2023-02-19T02:50:55;96256.81;;;9.27;100.00
7662;BME280;30314;48.184;11.510;2023-02-19T02:54:07;96262.88;;;9.12;100.00
7662;BME280;30314;48.184;11.510;2023-02-19T02:56:55;96248.66;;;8.92;100.00
7662;BME280;30314;48.184;11.510;2023-02-19T02:59:29;96234.19;;;8.69;100.00
7662;BME280;30314;48.184;11.510;2023-02-19T03:02:04;96232.34;;;8.69;100.00
7662;BME280;30314;48.184;11.510;2023-02-19T03:08:10;96249.16;;;8.53;100.00
7662;BME280;30314;48.184;11.510;2023-02-19T03:13:27;96225.50;;;8.42;100.00
7662;BME280;30314;48.184;11.510;2023-02-19T03:16:18;96233.66;;;8.51;100.00
7662;BME280;30314;48.184;11.510;2023-02-19T03:19:09;96237.06;;;8.36;100.00
7662;BME280;30314;48.184;11.510;2023-02-19T03:21:54;96214.94;;;8.22;100.00
7662;BME280;30314;48.184;11.510;2023-02-19T03:24:27;96234.69;;;8.35;100.00
7662;BME280;30314;48.184;11.510;2023-02-19T03:27:14;96216.50;;;8.23;100.00
7662;BME280;30314;48.184;11.510;2023-02-19T03:29:48;96226.00;;;8.29;100.00
7662;BME280;30314;48.184;11.510;2023-02-19T03:32:29;96221.50;;;8.19;100.00
7662;BME280;30314;48.184;11.510;2023-02-19T03:35:05;96212.31;;;8.27;100.00
7662;BME280;30314;48.184;11.510;2023-02-19T03:37:51;96220.72;;;8.18;100.00
7662;BME280;30314;48.184;11.510;2023-02-19T03:40:20;96232.56;;;8.21;100.00
7662;BME280;30314;48.184;11.510;2023-02-19T03:43:02;96217.31;;;8.23;100.00
7662;BME280;30314;48.184;11.510;2023-02-19T03:45:57;96227.56;;;8.14;100.00
7662;BME280;30314;48.184;11.510;2023-02-19T03:48:35;96230.94;;;8.04;100.00
7662;BME280;30314;48.184;11.510;2023-02-19T03:51:26;96225.97;;;8.03;100.00
7662;BME280;30314;48.184;11.510;2023-02-19T03:56:44;96219.63;;;7.94;100.00
7662;BME280;30314;48.184;11.510;2023-02-19T03:59:32;96222.78;;;7.91;100.00
7662;BME280;30314;48.184;11.510;2023-02-19T04:02:11;96212.22;;;7.85;100.00
7662;BME280;30314;48.184;11.510;2023-02-19T04:04:49;96202.19;;;7.72;100.00
7662;BME280;30314;48.184;11.510;2023-02-19T04:07:19;96213.28;;;7.79;100.00
7662;BME280;30314;48.184;11.510;2023-02-19T04:09:47;96197.72;;;7.67;100.00
7662;BME280;30314;48.184;11.510;2023-02-19T04:12:18;96230.63;;;7.80;100.00
7662;BME280;30314;48.184;11.510;2023-02-19T04:14:53;96186.41;;;7.72;100.00
7662;BME280;30314;48.184;11.510;2023-02-19T04:17:38;96182.50;;;7.74;100.00
7662;BME280;30314;48.184;11.510;2023-02-19T04:20:08;96193.50;;;7.66;100.00
7662;BME280;30314;48.184;11.510;2023-02-19T04:22:36;96196.41;;;7.70;100.00
7662;BME280;30314;48.184;11.510;2023-02-19T04:25:04;96194.31;;;7.72;100.00
7662;BME280;30314;48.184;11.510;2023-02-19T04:27:31;96197.94;;;7.55;100.00
7662;BME280;30314;48.184;11.510;2023-02-19T04:30:00;96202.72;;;7.64;100.00
7662;BME280;30314;48.184;11.510;2023-02-19T04:32:27;96157.13;;;7.32;100.00
7662;BME280;30314;48.184;11.510;2023-02-19T04:34:53;96198.16;;;7.43;100.00
7662;BME280;30314;48.184;11.510;2023-02-19T04:37:20;96199.47;;;7.41;100.00
7662;BME280;30314;48.184;11.510;2023-02-19T04:39:46;96218.44;;;7.58;100.00
7662;BME280;30314;48.184;11.510;2023-02-19T04:42:13;96169.72;;;7.30;100.00
7662;BME280;30314;48.184;11.510;2023-02-19T04:44:39;96215.56;;;7.55;100.00
7662;BME280;30314;48.184;11.510;2023-02-19T04:47:06;96198.16;;;7.49;100.00
7662;BME280;30314;48.184;11.510;2023-02-19T04:49:33;96242.38;;;7.62;100.00
7662;BME280;30314;48.184;11.510;2023-02-19T04:52:00;96230.34;;;7.71;100.00
7662;BME280;30314;48.184;11.510;2023-02-19T04:54:26;96216.38;;;7.60;100.00
7662;BME280;30314;48.184;11.510;2023-02-19T04:56:52;96220.06;;;7.70;100.00
7662;BME280;30314;48.184;11.510;2023-02-19T04:59:19;96180.00;;;7.42;100.00
7662;BME280;30314;48.184;11.510;2023-02-19T05:01:46;96236.38;;;7.72;100.00
7662;BME280;30314;48.184;11.510;2023-02-19T05:04:12;96230.06;;;7.73;100.00
7662;BME280;30314;48.184;11.510;2023-02-19T05:06:39;96240.31;;;7.69;100.00
7662;BME280;30314;48.184;11.510;2023-02-19T05:09:05;96230.28;;;7.61;100.00
7662;BME280;30314;48.184;11.510;2023-02-19T05:11:32;96218.44;;;7.58;100.00
7662;BME280;30314;48.184;11.510;2023-02-19T05:13:58;96240.09;;;7.81;100.00
7662;BME280;30314;48.184;11.510;2023-02-19T05:16:24;96201.09;;;7.57;100.00
7662;BME280;30314;48.184;11.510;2023-02-19T05:18:51;96232.94;;;7.66;100.00
7662;BME280;30314;48.184;11.510;2023-02-19T05:21:17;96241.63;;;7.67;100.00
7662;BME280;30314;48.184;11.510;2023-02-19T05:23:44;96225.56;;;7.63;100.00
7662;BME280;30314;48.184;11.510;2023-02-19T05:26:13;96222.44;;;7.71;100.00
7662;BME280;30314;48.184;11.510;2023-02-19T05:28:48;96241.63;;;7.67;100.00
7662;BME280;30314;48.184;11.510;2023-02-19T05:31:15;96227.41;;;7.63;100.00
7662;BME280;30314;48.184;11.510;2023-02-19T05:33:42;96260.13;;;7.87;100.00
7662;BME280;30314;48.184;11.510;2023-02-19T05:36:11;96231.66;;;7.74;100.00
7662;BME280;30314;48.184;11.510;2023-02-19T05:38:38;96234.78;;;7.71;100.00
7662;BME280;30314;48.184;11.510;2023-02-19T05:41:11;96262.22;;;7.91;100.00
7662;BME280;30314;48.184;11.510;2023-02-19T05:43:39;96269.88;;;7.97;100.00
7662;BME280;30314;48.184;11.510;2023-02-19T05:46:07;96250.56;;;7.71;100.00
7662;BME280;30314;48.184;11.510;2023-02-19T05:48:34;96252.44;;;7.75;100.00
7662;BME280;30314;48.184;11.510;2023-02-19T05:51:10;96282.72;;;7.88;100.00
7662;BME280;30314;48.184;11.510;2023-02-19T05:53:38;96279.06;;;7.95;100.00
7662;BME280;30314;48.184;11.510;2023-02-19T05:58:52;96283.03;;;7.97;100.00
7662;BME280;30314;48.184;11.510;2023-02-19T06:01:21;96283.31;;;8.01;100.00
7662;BME280;30314;48.184;11.510;2023-02-19T06:03:48;96277.47;;;7.94;100.00
7662;BME280;30314;48.184;11.510;2023-02-19T06:06:16;96283.25;;;7.96;100.00
7662;BME280;30314;48.184;11.510;2023-02-19T06:08:44;96266.16;;;7.93;100.00
7662;BME280;30314;48.184;11.510;2023-02-19T06:11:10;96263.28;;;7.95;100.00
7662;BME280;30314;48.184;11.510;2023-02-19T06:13:37;96246.66;;;7.79;100.00
7662;BME280;30314;48.184;11.510;2023-02-19T06:16:07;96253.00;;;7.93;100.00
7662;BME280;30314;48.184;11.510;2023-02-19T06:18:34;96261.13;;;7.76;100.00
7662;BME280;30314;48.184;11.510;2023-02-19T06:21:05;96287.47;;;7.92;100.00
7662;BME280;30314;48.184;11.510;2023-02-19T06:23:32;96277.47;;;7.94;100.00
7662;BME280;30314;48.184;11.510;2023-02-19T06:26:10;96284.34;;;8.10;100.00
7662;BME280;30314;48.184;11.510;2023-02-19T06:28:38;96286.75;;;8.07;100.00
7662;BME280;30314;48.184;11.510;2023-02-19T06:31:05;96291.19;;;8.11;100.00
7662;BME280;30314;48.184;11.510;2023-02-19T06:33:32;96280.09;;;7.88;100.00
7662;BME280;30314;48.184;11.510;2023-02-19T06:36:01;96302.25;;;8.08;100.00
7662;BME280;30314;48.184;11.510;2023-02-19T06:38:29;96293.59;;;8.08;100.00
7662;BME280;30314;48.184;11.510;2023-02-19T06:41:04;96294.63;;;8.12;100.00
7662;BME280;30314;48.184;11.510;2023-02-19T06:43:32;96319.31;;;8.06;100.00
7662;BME280;30314;48.184;11.510;2023-02-19T06:45:59;96309.91;;;8.10;100.00
7662;BME280;30314;48.184;11.510;2023-02-19T06:48:28;96281.72;;;8.05;100.00
7662;BME280;30314;48.184;11.510;2023-02-19T06:50:54;96298.81;;;8.02;100.00
7662;BME280;30314;48.184;11.510;2023-02-19T06:53:21;96318.31;;;8.12;100.00
7662;BME280;30314;48.184;11.510;2023-02-19T06:56:04;96301.44;;;8.02;100.00
7662;BME280;30314;48.184;11.510;2023-02-19T06:58:32;96296.47;;;8.06;100.00
7662;BME280;30314;48.184;11.510;2023-02-19T07:00:59;96308.03;;;8.10;100.00
7662;BME280;30314;48.184;11.510;2023-02-19T07:03:25;96324.09;;;8.14;100.00
7662;BME280;30314;48.184;11.510;2023-02-19T07:05:52;96322.28;;;8.20;100.00
7662;BME280;30314;48.184;11.510;2023-02-19T07:08:19;96324.16;;;8.24;100.00
7662;BME280;30314;48.184;11.510;2023-02-19T07:10:53;96344.44;;;8.29;100.00
7662;BME280;30314;48.184;11.510;2023-02-19T07:13:22;96321.72;;;8.12;100.00
7662;BME280;30314;48.184;11.510;2023-02-19T07:15:49;96352.56;;;8.27;100.00
7662;BME280;30314;48.184;11.510;2023-02-19T07:18:18;96345.47;;;8.28;100.00
7662;BME280;30314;48.184;11.510;2023-02-19T07:20:44;96352.28;;;8.24;100.00
7662;BME280;30314;48.184;11.510;2023-02-19T07:23:11;96347.56;;;8.26;100.00
7662;BME280;30314;48.184;11.510;2023-02-19T07:25:37;96350.16;;;8.21;100.00
7662;BME280;30314;48.184;11.510;2023-02-19T07:28:04;96361.28;;;8.38;100.00
7662;BME280;30314;48.184;11.510;2023-02-19T07:30:31;96359.44;;;8.34;100.00
7662;BME280;30314;48.184;11.510;2023-02-19T07:32:57;96338.88;;;8.30;100.00
7662;BME280;30314;48.184;11.510;2023-02-19T07:35:24;96383.41;;;8.42;100.00
7662;BME280;30314;48.184;11.510;2023-02-19T07:37:50;96365.19;;;8.30;100.00
7662;BME280;30314;48.184;11.510;2023-02-19T07:40:17;96363.38;;;8.36;100.00
7662;BME280;30314;48.184;11.510;2023-02-19T07:42:43;96391.31;;;8.53;100.00
7662;BME280;30314;48.184;11.510;2023-02-19T07:45:10;96363.66;;;8.40;100.00
7662;BME280;30314;48.184;11.510;2023-02-19T07:47:36;96388.69;;;8.48;100.00
7662;BME280;30314;48.184;11.510;2023-02-19T07:50:03;96380.78;;;8.42;100.00
7662;BME280;30314;48.184;11.510;2023-02-19T07:52:29;96403.38;;;8.38;100.00
7662;BME280;30314;48.184;11.510;2023-02-19T07:54:56;96398.63;;;8.30;100.00
7662;BME280;30314;48.184;11.510;2023-02-19T07:57:22;96399.16;;;8.27;100.00
7662;BME280;30314;48.184;11.510;2023-02-19T07:59:48;96416.59;;;8.43;100.00
7662;BME280;30314;48.184;11.510;2023-02-19T08:02:16;96431.09;;;8.56;100.00
7662;BME280;30314;48.184;11.510;2023-02-19T08:05:02;96427.16;;;8.54;100.00
7662;BME280;30314;48.184;11.510;2023-02-19T08:07:33;96430.56;;;8.54;100.00
7662;BME280;30314;48.184;11.510;2023-02-19T08:10:01;96434.28;;;8.69;100.00
7662;BME280;30314;48.184;11.510;2023-02-19T08:12:57;96440.34;;;8.64;100.00
7662;BME280;30314;48.184;11.510;2023-02-19T08:15:43;96436.41;;;8.72;100.00
7662;BME280;30314;48.184;11.510;2023-02-19T08:18:13;96447.47;;;8.69;100.00
7662;BME280;30314;48.184;11.510;2023-02-19T08:20:40;96432.94;;;8.56;100.00
7662;BME280;30314;48.184;11.510;2023-02-19T08:23:07;96453.78;;;8.63;100.00
7662;BME280;30314;48.184;11.510;2023-02-19T08:25:34;96433.97;;;8.44;100.00
7662;BME280;30314;48.184;11.510;2023-02-19T08:28:00;96450.91;;;8.69;100.00
7662;BME280;30314;48.184;11.510;2023-02-19T08:30:28;96444.88;;;8.79;100.00
7662;BME280;30314;48.184;11.510;2023-02-19T08:32:57;96448.22;;;8.64;100.00
7662;BME280;30314;48.184;11.510;2023-02-19T08:35:27;96456.69;;;8.77;100.00
7662;BME280;30314;48.184;11.510;2023-02-19T08:37:54;96433.25;;;8.65;100.00
7662;BME280;30314;48.184;11.510;2023-02-19T08:40:22;96463.34;;;8.90;100.00
7662;BME280;30314;48.184;11.510;2023-02-19T08:42:49;96465.13;;;8.79;100.00
7662;BME280;30314;48.184;11.510;2023-02-19T08:45:16;96426.09;;;8.60;100.00
7662;BME280;30314;48.184;11.510;2023-02-19T08:47:43;96456.19;;;8.74;100.00
7662;BME280;30314;48.184;11.510;2023-02-19T08:50:10;96468.81;;;8.72;100.00
7662;BME280;30314;48.184;11.510;2023-02-19T08:52:37;96486.47;;;8.77;100.00
7662;BME280;30314;48.184;11.510;2023-02-19T08:55:04;96469.28;;;8.64;100.00
7662;BME280;30314;48.184;11.510;2023-02-19T08:57:34;96464.06;;;8.69;100.00
7662;BME280;30314;48.184;11.510;2023-02-19T09:00:00;96475.16;;;8.82;100.00
7662;BME280;30314;48.184;11.510;2023-02-19T09:02:27;96472.75;;;8.70;100.00
7662;BME280;30314;48.184;11.510;2023-02-19T09:04:54;96484.84;;;8.60;100.00
7662;BME280;30314;48.184;11.510;2023-02-19T09:07:21;96488.97;;;8.46;100.00
7662;BME280;30314;48.184;11.510;2023-02-19T09:09:48;96476.84;;;8.45;100.00
7662;BME280;30314;48.184;11.510;2023-02-19T09:12:14;96483.69;;;8.41;100.00
7662;BME280;30314;48.184;11.510;2023-02-19T09:14:41;96492.69;;;8.50;100.00
7662;BME280;30314;48.184;11.510;2023-02-19T09:17:08;96473.13;;;8.36;100.00
7662;BME280;30314;48.184;11.510;2023-02-19T09:19:35;96511.50;;;8.80;100.00
7662;BME280;30314;48.184;11.510;2023-02-19T09:22:03;96520.19;;;8.80;100.00
7662;BME280;30314;48.184;11.510;2023-02-19T09:24:30;96510.41;;;8.70;100.00
7662;BME280;30314;48.184;11.510;2023-02-19T09:26:57;96505.09;;;8.55;100.00
7662;BME280;30314;48.184;11.510;2023-02-19T09:29:25;96507.94;;;8.48;100.00
7662;BME280;30314;48.184;11.510;2023-02-19T09:31:56;96525.59;;;8.53;100.00
7662;BME280;30314;48.184;11.510;2023-02-19T09:34:24;96526.31;;;8.43;100.00
7662;BME280;30314;48.184;11.510;2023-02-19T09:36:51;96540.84;;;8.45;100.00
7662;BME280;30314;48.184;11.510;2023-02-19T09:39:18;96526.50;;;8.26;100.00
7662;BME280;30314;48.184;11.510;2023-02-19T09:41:48;96547.53;;;8.26;100.00
7662;BME280;30314;48.184;11.510;2023-02-19T09:44:37;96548.84;;;8.23;100.00
7662;BME280;30314;48.184;11.510;2023-02-19T09:47:11;96548.94;;;8.34;100.00
7662;BME280;30314;48.184;11.510;2023-02-19T09:49:42;96533.00;;;8.13;100.00
7662;BME280;30314;48.184;11.510;2023-02-19T09:52:31;96537.53;;;8.23;100.00
7662;BME280;30314;48.184;11.510;2023-02-19T09:55:08;96544.13;;;8.25;100.00
7662;BME280;30314;48.184;11.510;2023-02-19T09:57:35;96546.97;;;8.18;100.00
7662;BME280;30314;48.184;11.510;2023-02-19T10:00:06;96534.06;;;8.17;100.00
7662;BME280;30314;48.184;11.510;2023-02-19T10:02:39;96546.75;;;8.25;100.00
7662;BME280;30314;48.184;11.510;2023-02-19T10:05:11;96543.44;;;8.40;100.00
7662;BME280;30314;48.184;11.510;2023-02-19T10:07:43;96524.00;;;8.52;100.00
7662;BME280;30314;48.184;11.510;2023-02-19T10:12:46;96522.69;;;9.13;100.00
7662;BME280;30314;48.184;11.510;2023-02-19T10:15:19;96523.28;;;9.36;100.00
7662;BME280;30314;48.184;11.510;2023-02-19T10:17:48;96525.94;;;9.56;99.00
7662;BME280;30314;48.184;11.510;2023-02-19T10:20:17;96501.72;;;9.75;96.36
7662;BME280;30314;48.184;11.510;2023-02-19T10:22:45;96516.72;;;9.85;95.68
7662;BME280;30314;48.184;11.510;2023-02-19T10:25:14;96516.72;;;9.85;97.00
7662;BME280;30314;48.184;11.510;2023-02-19T10:27:42;96540.19;;;10.23;94.78
7662;BME280;30314;48.184;11.510;2023-02-19T10:30:35;96531.72;;;10.31;91.78
7662;BME280;30314;48.184;11.510;2023-02-19T10:35:35;96536.41;;;10.60;87.74
7662;BME280;30314;48.184;11.510;2023-02-19T10:38:04;96542.69;;;10.85;91.18
7662;BME280;30314;48.184;11.510;2023-02-19T10:40:32;96545.50;;;11.04;84.30
7662;BME280;30314;48.184;11.510;2023-02-19T10:43:02;96526.00;;;11.00;84.67
7662;BME280;30314;48.184;11.510;2023-02-19T10:45:48;96533.09;;;10.99;83.43
7662;BME280;30314;48.184;11.510;2023-02-19T10:48:28;96523.09;;;10.91;77.32
7662;BME280;30314;48.184;11.510;2023-02-19T10:50:58;96539.19;;;11.00;82.29
7662;BME280;30314;48.184;11.510;2023-02-19T10:53:47;96528.91;;;10.93;73.88
7662;BME280;30314;48.184;11.510;2023-02-19T10:56:25;96541.53;;;11.12;76.82
7662;BME280;30314;48.184;11.510;2023-02-19T10:58:52;96503.97;;;11.20;72.68
7662;BME280;30314;48.184;11.510;2023-02-19T11:01:21;96522.31;;;11.46;76.46
7662;BME280;30314;48.184;11.510;2023-02-19T11:04:15;96511.19;;;11.49;68.67
7662;BME280;30314;48.184;11.510;2023-02-19T11:06:43;96522.41;;;11.31;71.13
7662;BME280;30314;48.184;11.510;2023-02-19T11:09:43;96507.72;;;11.04;70.32
7662;BME280;30314;48.184;11.510;2023-02-19T11:12:13;96513.88;;;10.89;76.98
7662;BME280;30314;48.184;11.510;2023-02-19T11:14:43;96506.78;;;10.79;77.59
7662;BME280;30314;48.184;11.510;2023-02-19T11:17:26;96501.59;;;10.48;75.89
7662;BME280;30314;48.184;11.510;2023-02-19T11:20:12;96513.44;;;10.55;76.09
7662;BME280;30314;48.184;11.510;2023-02-19T11:22:48;96512.66;;;10.50;76.77
7662;BME280;30314;48.184;11.510;2023-02-19T11:28:16;96514.19;;;10.71;72.31
7662;BME280;30314;48.184;11.510;2023-02-19T11:30:46;96516.81;;;10.82;77.32
7662;BME280;30314;48.184;11.510;2023-02-19T11:33:20;96521.84;;;10.78;75.49
7662;BME280;30314;48.184;11.510;2023-02-19T11:35:49;96517.38;;;10.63;76.73
7662;BME280;30314;48.184;11.510;2023-02-19T11:38:18;96510.09;;;10.39;78.62
7662;BME280;30314;48.184;11.510;2023-02-19T11:41:01;96532.56;;;10.11;84.50
7662;BME280;30314;48.184;11.510;2023-02-19T11:49:37;96533.59;;;9.53;100.00
7662;BME280;30314;48.184;11.510;2023-02-19T11:52:16;96536.50;;;9.56;98.33
7662;BME280;30314;48.184;11.510;2023-02-19T11:54:53;96545.75;;;9.69;99.47
7662;BME280;30314;48.184;11.510;2023-02-19T12:00:21;96546.78;;;9.63;83.70
7662;BME280;30314;48.184;11.510;2023-02-19T12:03:24;96539.16;;;9.62;80.48
7662;BME280;30314;48.184;11.510;2023-02-19T12:09:15;96533.63;;;9.68;82.32
7662;BME280;30314;48.184;11.510;2023-02-19T12:12:03;96538.63;;;9.75;81.51
7662;BME280;30314;48.184;11.510;2023-02-19T12:26:27;96541.25;;;9.96;75.69
7662;BME280;30314;48.184;11.510;2023-02-19T12:32:13;96534.16;;;9.70;82.43
7662;BME280;30314;48.184;11.510;2023-02-19T12:34:59;96561.84;;;9.83;82.76
7662;BME280;30314;48.184;11.510;2023-02-19T12:38:07;96558.16;;;9.79;78.57
7662;BME280;30314;48.184;11.510;2023-02-19T12:40:48;96577.69;;;9.73;83.13
7662;BME280;30314;48.184;11.510;2023-02-19T12:43:18;96565.19;;;9.37;84.81
7662;BME280;30314;48.184;11.510;2023-02-19T12:45:55;96563.00;;;9.19;85.89
7662;BME280;30314;48.184;11.510;2023-02-19T12:48:28;96572.97;;;9.06;88.75
7662;BME280;30314;48.184;11.510;2023-02-19T12:51:05;96552.91;;;8.95;83.08
7662;BME280;30314;48.184;11.510;2023-02-19T12:53:54;96574.84;;;9.16;85.13
7662;BME280;30314;48.184;11.510;2023-02-19T12:56:28;96576.19;;;9.13;76.50
7662;BME280;30314;48.184;11.510;2023-02-19T12:59:03;96566.38;;;8.98;74.17
7662;BME280;30314;48.184;11.510;2023-02-19T13:01:37;96548.41;;;8.90;78.25
7662;BME280;30314;48.184;11.510;2023-02-19T13:04:36;96591.25;;;9.23;76.44
7662;BME280;30314;48.184;11.510;2023-02-19T13:07:10;96588.38;;;9.35;81.27
7662;BME280;30314;48.184;11.510;2023-02-19T13:12:42;96566.78;;;9.28;76.69
7662;BME280;30314;48.184;11.510;2023-02-19T13:15:18;96584.88;;;9.19;79.23
7662;BME280;30314;48.184;11.510;2023-02-19T13:17:49;96569.03;;;9.09;78.79
7662;BME280;30314;48.184;11.510;2023-02-19T13:20:24;96577.75;;;9.14;81.52
7662;BME280;30314;48.184;11.510;2023-02-19T13:22:58;96589.94;;;9.26;83.37
7662;BME280;30314;48.184;11.510;2023-02-19T13:29:08;96597.16;;;9.62;80.51
7662;BME280;30314;48.184;11.510;2023-02-19T13:32:09;96581.84;;;9.58;82.35
7662;BME280;30314;48.184;11.510;2023-02-19T13:37:15;96556.84;;;9.66;79.44
7662;BME280;30314;48.184;11.510;2023-02-19T13:39:46;96551.81;;;9.65;79.06
7662;BME280;30314;48.184;11.510;2023-02-19T13:42:30;96559.16;;;9.52;80.79
7662;BME280;30314;48.184;11.510;2023-02-19T13:44:59;96561.00;;;9.52;80.47
7662;BME280;30314;48.184;11.510;2023-02-19T13:50:21;96584.44;;;9.38;83.20
7662;BME280;30314;48.184;11.510;2023-02-19T13:52:49;96566.41;;;9.14;79.70
7662;BME280;30314;48.184;11.510;2023-02-19T14:01:07;96575.50;;;9.34;86.96
7662;BME280;30314;48.184;11.510;2023-02-19T14:03:47;96580.19;;;9.32;82.35
7662;BME280;30314;48.184;11.510;2023-02-19T14:06:16;96560.41;;;9.24;83.43
7662;BME280;30314;48.184;11.510;2023-02-19T14:08:53;96572.56;;;9.35;82.59
7662;BME280;30314;48.184;11.510;2023-02-19T14:14:24;96571.50;;;9.31;79.89
7662;BME280;30314;48.184;11.510;2023-02-19T14:16:58;96594.94;;;9.22;76.99
7662;BME280;30314;48.184;11.510;2023-02-19T14:30:51;96569.47;;;8.85;84.20
7662;BME280;30314;48.184;11.510;2023-02-19T14:33:24;96580.03;;;8.90;84.45
7662;BME280;30314;48.184;11.510;2023-02-19T14:35:55;96571.28;;;8.79;82.78
7662;BME280;30314;48.184;11.510;2023-02-19T14:38:27;96553.91;;;8.78;83.98
7662;BME280;30314;48.184;11.510;2023-02-19T14:40:57;96562.09;;;8.82;86.28
7662;BME280;30314;48.184;11.510;2023-02-19T14:43:25;96567.38;;;8.92;86.76
7662;BME280;30314;48.184;11.510;2023-02-19T14:45:54;96567.94;;;8.94;87.22
7662;BME280;30314;48.184;11.510;2023-02-19T14:48:31;96566.66;;;9.02;84.84
7662;BME280;30314;48.184;11.510;2023-02-19T14:51:05;96572.16;;;9.00;85.03
7662;BME280;30314;48.184;11.510;2023-02-19T14:53:37;96581.66;;;8.96;84.69
7662;BME280;30314;48.184;11.510;2023-02-19T14:56:06;96587.91;;;8.90;85.85